Hobbsville, North Carolina
Current Conditions -  °F | °C
As of 10:35 AM on Saturday 25 Oct 2014 (Local Time) from KEDE Reporting Station
Clear Clear  
Wind Chill: 61°   Ceiling: Unl
Heat Index: 61°   Visibility: 10mi
Dew Point: 50°   Wind: 5mph
Humidity: 68%   Direction: 30°NNE
Pressure: 29.99"   Gusts: NA
Location:  36.35°N, 76.6°W
Report Text: KEDE 251435Z AUTO 03004KT 10SM CLR 16/10 A2999 RMK AO2 T01600101
Loading
Personal Weather Stations






























Interactive Weather Map New forecast layout! Learn more

10-Day Weather Forecast

Advertisements
Track Severe Weather on mobile